Time;durP1;ratioP1;P1;durP2;ratioP2;P2;SDS_P1;SDS_P2;PMS_P1;PMS_P2;Temp;Humidity;BMP_temperature;BMP_pressure;BME280_temperature;BME280_humidity;BME280_pressure;Samples;Min_cycle;Max_cycle;Signal;HPM_P1;HPM_P2
2023/04/05 00:02:09;;;;;;;15.85;12.38;;;;;;;0.53;96.41;102364.28;5055079;28;20037;-57
2023/04/05 00:04:35;;;;;;;20.70;12.77;;;;;;;0.38;96.78;102370.44;5055666;28;20035;-57
2023/04/05 00:07:01;;;;;;;17.30;12.27;;;;;;;0.31;96.94;102364.75;5055311;28;20032;-58
2023/04/05 00:09:27;;;;;;;16.73;12.77;;;;;;;0.32;96.95;102360.56;5054689;28;20044;-57
2023/04/05 00:11:53;;;;;;;15.48;12.20;;;;;;;0.18;97.30;102371.94;5055348;28;20524;-57
2023/04/05 00:14:18;;;;;;;16.95;12.18;;;;;;;0.13;98.61;102371.50;5055361;28;20037;-57
2023/04/05 00:16:44;;;;;;;15.90;11.88;;;;;;;-0.12;99.15;102370.75;5054329;28;20032;-57
2023/04/05 00:19:11;;;;;;;16.25;13.32;;;;;;;-0.11;100.00;102362.41;5055089;28;20384;-57
2023/04/05 00:21:38;;;;;;;16.67;13.45;;;;;;;-0.12;100.00;102375.81;5055403;28;20021;-57
2023/04/05 00:24:04;;;;;;;17.70;13.23;;;;;;;-0.20;100.00;102361.53;5054200;28;20578;-57
2023/04/05 00:26:29;;;;;;;17.45;14.07;;;;;;;-0.11;100.00;102369.13;5055103;28;20528;-57
2023/04/05 00:28:54;;;;;;;19.27;14.13;;;;;;;-0.07;100.00;102354.34;5054649;28;20025;-57
2023/04/05 00:31:20;;;;;;;19.85;13.93;;;;;;;-0.05;100.00;102357.06;5054425;28;20029;-57
2023/04/05 00:33:45;;;;;;;19.27;14.20;;;;;;;-0.09;100.00;102355.88;5054956;28;20062;-58
2023/04/05 00:36:19;;;;;;;19.17;14.32;;;;;;;-0.11;100.00;102356.47;5054458;28;20025;-57
2023/04/05 00:38:46;;;;;;;17.60;14.02;;;;;;;-0.10;100.00;102349.00;5054396;28;20102;-58
2023/04/05 00:41:12;;;;;;;16.45;13.35;;;;;;;-0.14;100.00;102352.00;5054367;28;20029;-57
2023/04/05 00:43:38;;;;;;;20.80;14.10;;;;;;;-0.15;100.00;102352.72;5054583;28;20460;-57
2023/04/05 00:46:04;;;;;;;19.77;13.88;;;;;;;-0.27;100.00;102349.00;5053996;28;20492;-57
2023/04/05 00:48:30;;;;;;;17.23;13.07;;;;;;;-0.24;100.00;102344.25;5054836;28;20342;-57
2023/04/05 00:50:56;;;;;;;20.17;14.25;;;;;;;-0.29;100.00;102346.31;5054266;28;20507;-57
2023/04/05 00:53:22;;;;;;;19.75;14.15;;;;;;;-0.36;100.00;102339.75;5054031;28;20028;-57
2023/04/05 00:55:48;;;;;;;19.42;13.98;;;;;;;-0.53;100.00;102343.19;5054430;28;20021;-58
2023/04/05 00:58:18;;;;;;;17.33;13.35;;;;;;;-0.68;100.00;102344.19;5054177;28;20033;-57
2023/04/05 01:00:54;;;;;;;17.13;13.30;;;;;;;-0.63;100.00;102350.63;5053068;28;20068;-57
2023/04/05 01:03:24;;;;;;;19.30;14.55;;;;;;;-0.65;100.00;102352.09;5054314;28;20121;-58
2023/04/05 01:06:03;;;;;;;19.17;14.90;;;;;;;-0.61;100.00;102351.63;5053621;28;20353;-57
2023/04/05 01:08:44;;;;;;;20.42;15.25;;;;;;;-0.69;100.00;102355.94;5054541;28;20029;-57
2023/04/05 01:11:12;;;;;;;17.15;14.15;;;;;;;-0.86;100.00;102358.44;5054014;28;20029;-57
2023/04/05 01:13:37;;;;;;;;;;;;;;;-0.68;100.00;102355.22;5053995;28;20028;-57
2023/04/05 01:16:03;;;;;;;17.03;14.60;;;;;;;-0.80;100.00;102348.94;5053822;28;19917;-57
2023/04/05 01:18:29;;;;;;;20.67;15.43;;;;;;;-0.82;100.00;102342.81;5053856;28;20287;-57
2023/04/05 01:21:36;;;;;;;18.95;14.80;;;;;;;-0.81;100.00;102337.03;5053299;28;20021;-57
2023/04/05 01:24:27;;;;;;;19.02;14.50;;;;;;;-0.79;100.00;102344.75;5053785;28;20032;-57
2023/04/05 01:27:17;;;;;;;23.38;16.35;;;;;;;-0.72;100.00;102343.00;5053163;28;20135;-57
2023/04/05 01:29:58;;;;;;;19.98;16.42;;;;;;;-0.79;100.00;102338.06;5054207;28;20102;-57
2023/04/05 01:32:52;;;;;;;23.75;16.92;;;;;;;-0.81;100.00;102333.56;5053831;28;20447;-57
2023/04/05 01:35:26;;;;;;;23.55;17.45;;;;;;;-0.84;100.00;102331.63;5052872;28;20021;-57
2023/04/05 01:38:01;;;;;;;20.67;16.02;;;;;;;-0.86;100.00;102328.06;5053957;28;20024;-57
2023/04/05 01:40:28;;;;;;;24.13;17.27;;;;;;;-0.92;100.00;102318.22;5053548;28;20031;-57
2023/04/05 01:42:54;;;;;;;23.43;16.83;;;;;;;-0.93;100.00;102320.59;5053059;28;20052;-57
2023/04/05 01:45:19;;;;;;;25.05;17.13;;;;;;;-0.90;100.00;102315.88;5053606;28;20432;-57
2023/04/05 01:47:44;;;;;;;23.10;17.02;;;;;;;-0.95;100.00;102317.03;5052857;28;20425;-57
2023/04/05 01:50:10;;;;;;;18.40;15.75;;;;;;;-0.93;100.00;102318.06;5053198;28;20024;-57
2023/04/05 01:52:35;;;;;;;20.05;15.15;;;;;;;-1.01;100.00;102313.16;5053516;28;20504;-57
2023/04/05 01:55:02;;;;;;;20.95;15.88;;;;;;;-0.96;100.00;102321.19;5052443;28;20020;-57
2023/04/05 01:57:27;;;;;;;20.33;16.15;;;;;;;-1.06;100.00;102311.81;5053532;28;20016;-57
2023/04/05 01:59:52;;;;;;;19.75;14.88;;;;;;;-1.24;100.00;102318.44;5053385;28;20033;-57
2023/04/05 02:02:18;;;;;;;17.67;14.38;;;;;;;-1.32;100.00;102319.28;5051992;28;20049;-57
2023/04/05 02:04:43;;;;;;;20.60;15.15;;;;;;;-1.28;100.00;102302.78;5053393;28;20043;-57
2023/04/05 02:07:08;;;;;;;21.77;16.80;;;;;;;-1.34;100.00;102311.53;5053057;28;20036;-57
2023/04/05 02:09:33;;;;;;;23.35;17.23;;;;;;;-1.30;100.00;102306.78;5052589;28;20025;-57
2023/04/05 02:12:00;;;;;;;19.60;16.08;;;;;;;-1.36;100.00;102302.91;5052594;28;20025;-57
2023/04/05 02:14:25;;;;;;;19.58;16.13;;;;;;;-1.33;100.00;102298.16;5053087;28;20029;-58
2023/04/05 02:16:52;;;;;;;22.05;15.82;;;;;;;-1.38;100.00;102303.47;5052237;28;20030;-58
2023/04/05 02:19:21;;;;;;;20.73;15.65;;;;;;;-1.40;100.00;102298.28;5052568;28;20384;-58
2023/04/05 02:21:52;;;;;;;24.30;17.08;;;;;;;-1.47;100.00;102298.41;5052729;28;20384;-57
2023/04/05 02:24:18;;;;;;;21.67;16.63;;;;;;;-1.45;100.00;102296.91;5052505;28;20024;-57
2023/04/05 02:26:43;;;;;;;21.23;17.27;;;;;;;-1.41;100.00;102299.00;5053198;28;20033;-58
2023/04/05 02:29:08;;;;;;;24.90;17.73;;;;;;;-1.41;100.00;102290.53;5052391;28;20028;-57
2023/04/05 02:31:34;;;;;;;18.20;15.50;;;;;;;-1.54;100.00;102291.81;5052263;28;20032;-57
2023/04/05 02:33:59;;;;;;;21.17;17.00;;;;;;;-1.52;100.00;102299.56;5052727;28;20021;-57
2023/04/05 02:36:27;;;;;;;21.20;15.88;;;;;;;-1.57;100.00;102290.63;5052374;28;20024;-58
2023/04/05 02:38:52;;;;;;;18.33;16.15;;;;;;;-1.62;100.00;102290.16;5052436;28;20052;-57
2023/04/05 02:41:18;;;;;;;24.95;17.55;;;;;;;-1.64;100.00;102288.19;5052626;28;20461;-57
2023/04/05 02:43:44;;;;;;;24.70;18.60;;;;;;;-1.66;100.00;102296.53;5052449;28;20047;-57
2023/04/05 02:46:09;;;;;;;26.23;18.50;;;;;;;-1.62;100.00;102289.28;5051790;28;20538;-57
2023/04/05 02:48:35;;;;;;;23.02;17.40;;;;;;;-1.60;100.00;102287.78;5052572;28;20024;-57
2023/04/05 02:51:00;;;;;;;22.40;17.17;;;;;;;-1.58;100.00;102293.88;5051683;28;20025;-58
2023/04/05 02:53:25;;;;;;;20.30;16.15;;;;;;;-1.65;100.00;102292.38;5052787;28;20024;-57
2023/04/05 02:55:55;;;;;;;21.45;17.50;;;;;;;-1.60;100.00;102290.31;5052460;28;20029;-57
2023/04/05 02:58:22;;;;;;;27.70;17.55;;;;;;;-1.71;100.00;102285.03;5052015;28;20044;-57
2023/04/05 03:00:50;;;;;;;22.27;16.10;;;;;;;-1.73;100.00;102289.06;5052461;28;20024;-57
2023/04/05 03:03:20;;;;;;;21.55;17.33;;;;;;;-1.76;100.00;102287.84;5052101;28;20068;-57
2023/04/05 03:05:47;;;;;;;22.90;17.70;;;;;;;-1.75;100.00;102277.88;5052061;28;20025;-58
2023/04/05 03:08:18;;;;;;;22.65;17.73;;;;;;;-1.71;100.00;102276.56;5052211;28;20025;-57
2023/04/05 03:10:45;;;;;;;22.48;17.80;;;;;;;-1.73;100.00;102278.97;5052215;28;20473;-57
2023/04/05 03:13:10;;;;;;;25.83;18.27;;;;;;;-1.71;100.00;102274.06;5051483;28;20025;-57
2023/04/05 03:15:36;;;;;;;19.90;16.48;;;;;;;-1.72;100.00;102265.56;5052371;28;20037;-57
2023/04/05 03:18:01;;;;;;;18.80;16.40;;;;;;;-1.81;100.00;102269.69;5052000;28;20029;-57
2023/04/05 03:20:26;;;;;;;20.15;16.30;;;;;;;-1.77;100.00;102265.84;5051990;28;20431;-57
2023/04/05 03:22:51;;;;;;;20.17;16.55;;;;;;;-1.91;100.00;102266.94;5052286;28;20468;-57
2023/04/05 03:25:17;;;;;;;19.02;15.77;;;;;;;-1.93;100.00;102264.25;5054636;28;20056;-57
2023/04/05 03:27:44;;;;;;;23.45;17.13;;;;;;;-2.02;100.00;102261.69;5055526;28;20044;-56
2023/04/05 03:30:09;;;;;;;20.10;16.73;;;;;;;-1.97;100.00;102251.19;5056063;28;20101;-57
2023/04/05 03:32:35;;;;;;;20.55;16.48;;;;;;;-2.02;100.00;102264.22;5055782;28;20103;-57
2023/04/05 03:35:00;;;;;;;19.38;16.13;;;;;;;-2.03;100.00;102261.53;5055313;28;20025;-57
2023/04/05 03:37:25;;;;;;;22.55;16.73;;;;;;;-2.03;100.00;102259.91;5056157;28;20021;-57
2023/04/05 03:39:50;;;;;;;22.48;17.45;;;;;;;-2.09;100.00;102261.81;5055780;28;20035;-57
2023/04/05 03:42:16;;;;;;;20.83;16.85;;;;;;;-2.11;100.00;102262.38;5055051;28;20029;-57
2023/04/05 03:44:43;;;;;;;22.20;17.75;;;;;;;-2.05;100.00;102261.38;5056170;28;20028;-57
2023/04/05 03:47:08;;;;;;;24.90;19.15;;;;;;;-2.03;100.00;102256.47;5055334;28;20057;-57
2023/04/05 03:49:33;;;;;;;22.13;18.67;;;;;;;-2.11;100.00;102255.69;5055473;28;20064;-57
2023/04/05 03:51:59;;;;;;;24.80;18.50;;;;;;;-2.02;100.00;102251.56;5055483;28;20108;-58
2023/04/05 03:54:24;;;;;;;22.67;18.45;;;;;;;-2.04;100.00;102255.59;5055042;28;20439;-57
2023/04/05 03:56:50;;;;;;;24.08;19.67;;;;;;;-2.02;100.00;102251.56;5055466;28;20033;-58
2023/04/05 03:59:15;;;;;;;25.23;19.77;;;;;;;-2.02;100.00;102255.75;5055468;28;20479;-57
2023/04/05 04:01:41;;;;;;;25.02;18.98;;;;;;;-2.07;100.00;102247.69;5054680;28;20128;-57
2023/04/05 04:04:06;;;;;;;20.85;17.35;;;;;;;-2.16;100.00;102249.25;5055430;28;20033;-57
2023/04/05 04:06:32;;;;;;;23.77;18.65;;;;;;;-2.15;100.00;102257.00;5055650;28;20473;-57
2023/04/05 04:08:57;;;;;;;22.77;18.17;;;;;;;-2.12;100.00;102240.38;5054593;28;20469;-57
2023/04/05 04:11:23;;;;;;;22.45;17.42;;;;;;;-2.26;100.00;102242.38;5055373;28;20028;-57
2023/04/05 04:13:48;;;;;;;22.52;17.90;;;;;;;-2.28;100.00;102248.00;5055550;28;20040;-57
2023/04/05 04:16:13;;;;;;;21.55;17.50;;;;;;;-2.34;100.00;102246.66;5054634;28;20377;-57
2023/04/05 04:18:39;;;;;;;22.83;17.02;;;;;;;-2.26;100.00;102246.53;5055379;28;20045;-57
2023/04/05 04:21:07;;;;;;;20.52;18.17;;;;;;;-2.32;100.00;102241.75;5054686;28;20124;-57
2023/04/05 04:23:38;;;;;;;21.20;17.70;;;;;;;-2.40;100.00;102243.47;5054544;28;20380;-57
2023/04/05 04:26:04;;;;;;;22.67;17.42;;;;;;;-2.46;100.00;102242.81;5054944;28;20029;-57
2023/04/05 04:28:33;;;;;;;24.73;19.17;;;;;;;-2.45;100.00;102242.09;5054865;28;20033;-58
2023/04/05 04:31:03;;;;;;;26.35;19.73;;;;;;;-2.51;100.00;102242.31;5054361;28;20032;-57
2023/04/05 04:33:28;;;;;;;25.92;20.27;;;;;;;-2.42;100.00;102249.97;5055109;28;20028;-57
2023/04/05 04:35:54;;;;;;;24.55;18.30;;;;;;;-2.46;100.00;102247.00;5054387;28;20055;-57
2023/04/05 04:38:20;;;;;;;24.77;18.35;;;;;;;-2.45;100.00;102243.72;5054215;28;20033;-57
2023/04/05 04:40:45;;;;;;;25.10;19.08;;;;;;;-2.52;100.00;102248.13;5054857;28;20021;-57
2023/04/05 04:43:13;;;;;;;26.05;19.23;;;;;;;-2.57;100.00;102243.31;5054472;28;20025;-57
2023/04/05 04:45:48;;;;;;;22.48;17.83;;;;;;;-2.61;100.00;102246.28;5054207;28;20535;-57
2023/04/05 04:48:15;;;;;;;23.10;18.17;;;;;;;-2.62;100.00;102247.00;5054486;28;20107;-57
2023/04/05 04:50:45;;;;;;;23.38;18.58;;;;;;;-2.67;100.00;102241.47;5053930;28;20408;-58
2023/04/05 04:53:12;;;;;;;25.08;18.52;;;;;;;-2.67;100.00;102241.47;5054154;28;20029;-58
2023/04/05 04:55:41;;;;;;;23.77;18.02;;;;;;;-2.73;100.00;102246.75;5054686;28;20067;-57
2023/04/05 04:58:09;;;;;;;25.08;19.35;;;;;;;-2.74;100.00;102244.97;5053699;28;20025;-57
2023/04/05 05:00:35;;;;;;;30.25;20.00;;;;;;;-2.66;100.00;102248.28;5054844;28;20103;-57
2023/04/05 05:03:02;;;;;;;24.02;20.13;;;;;;;-2.62;100.00;102249.50;5053777;28;20037;-57
2023/04/05 05:05:27;;;;;;;28.55;20.98;;;;;;;-2.55;100.00;102239.34;5053812;28;20137;-57
2023/04/05 05:07:52;;;;;;;24.98;20.08;;;;;;;-2.64;100.00;102246.84;5054363;28;20160;-57
2023/04/05 05:10:18;;;;;;;25.38;19.33;;;;;;;-2.61;100.00;102246.28;5053979;28;20044;-57
2023/04/05 05:12:44;;;;;;;24.63;20.50;;;;;;;-2.66;100.00;102239.13;5053794;28;20029;-57
2023/04/05 05:15:10;;;;;;;28.42;20.20;;;;;;;-2.68;100.00;102240.56;5053877;28;20029;-57
2023/04/05 05:17:36;;;;;;;30.02;20.17;;;;;;;-2.63;100.00;102241.06;5053900;28;20031;-57
2023/04/05 05:20:04;;;;;;;28.17;20.48;;;;;;;-2.72;100.00;102237.59;5053318;28;20021;-57
2023/04/05 05:22:30;;;;;;;28.90;20.40;;;;;;;-2.62;100.00;102232.75;5054056;28;20517;-57
2023/04/05 05:24:55;;;;;;;23.83;20.30;;;;;;;-2.63;100.00;102238.53;5053625;28;20111;-57
2023/04/05 05:27:21;;;;;;;27.05;19.00;;;;;;;-2.65;100.00;102238.38;5053676;28;20017;-57
2023/04/05 05:29:46;;;;;;;26.13;19.80;;;;;;;-2.70;100.00;102236.09;5054074;28;20465;-57
2023/04/05 05:32:14;;;;;;;25.02;19.83;;;;;;;-2.58;100.00;102239.00;5053387;28;20029;-57
2023/04/05 05:34:40;;;;;;;26.38;22.42;;;;;;;-2.52;100.00;102234.59;5053285;28;20036;-58
2023/04/05 05:37:08;;;;;;;25.95;21.85;;;;;;;-2.51;100.00;102242.31;5053505;28;20120;-57
2023/04/05 05:39:33;;;;;;;26.30;22.45;;;;;;;-2.40;100.00;102232.47;5053743;28;20107;-57
2023/04/05 05:41:59;;;;;;;30.05;23.25;;;;;;;-2.36;100.00;102234.59;5053105;28;20099;-58
2023/04/05 05:44:24;;;;;;;30.75;22.88;;;;;;;-2.32;100.00;102226.59;5053622;28;20380;-57
2023/04/05 05:46:49;;;;;;;30.85;22.73;;;;;;;-2.28;100.00;102225.28;5052486;28;20032;-57
2023/04/05 05:49:15;;;;;;;30.90;22.08;;;;;;;-2.26;100.00;102226.31;5053324;28;20099;-57
2023/04/05 05:51:41;;;;;;;23.92;20.23;;;;;;;-2.24;100.00;102229.91;5053466;28;20384;-57
2023/04/05 05:54:06;;;;;;;29.20;21.65;;;;;;;-2.15;100.00;102240.97;5052623;28;20674;-57
2023/04/05 05:56:31;;;;;;;25.65;21.38;;;;;;;-2.19;100.00;102238.84;5053476;28;20083;-57
2023/04/05 05:58:58;;;;;;;28.42;22.15;;;;;;;-2.07;100.00;102240.09;5053162;28;20028;-57
2023/04/05 06:01:26;;;;;;;25.50;21.50;;;;;;;-2.01;100.00;102240.75;5052507;28;20017;-56
2023/04/05 06:03:52;;;;;;;26.75;22.10;;;;;;;-1.97;100.00;102238.53;5053144;28;20061;-57
2023/04/05 06:06:17;;;;;;;29.23;22.33;;;;;;;-1.88;100.00;102242.00;5052656;28;20064;-57
2023/04/05 06:08:43;;;;;;;31.05;24.05;;;;;;;-1.79;100.00;102242.06;5052871;28;20461;-57
2023/04/05 06:11:16;;;;;;;29.83;22.85;;;;;;;-1.77;100.00;102246.53;5052751;28;20082;-57
2023/04/05 06:13:41;;;;;;;28.85;22.23;;;;;;;-1.69;100.00;102238.09;5053041;28;20094;-57
2023/04/05 06:16:06;;;;;;;30.35;22.48;;;;;;;-1.60;100.00;102250.75;5052192;28;20071;-57
2023/04/05 06:18:32;;;;;;;28.02;22.23;;;;;;;-1.52;100.00;102246.47;5052992;28;20021;-57
2023/04/05 06:20:57;;;;;;;26.92;22.27;;;;;;;-1.45;100.00;102251.41;5052661;28;20025;-57
2023/04/05 06:23:22;;;;;;;26.30;21.42;;;;;;;-1.39;100.00;102246.97;5052582;28;20091;-57
2023/04/05 06:25:48;;;;;;;27.60;23.23;;;;;;;-1.24;100.00;102241.63;5053011;28;20021;-57
2023/04/05 06:28:13;;;;;;;28.50;22.98;;;;;;;-1.16;100.00;102243.31;5052391;28;20847;-57
2023/04/05 06:30:38;;;;;;;25.15;21.25;;;;;;;-1.03;100.00;102243.78;5052350;28;20024;-57
2023/04/05 06:33:04;;;;;;;25.60;21.45;;;;;;;-0.93;100.00;102244.69;5052450;28;20072;-58
2023/04/05 06:35:29;;;;;;;27.98;22.48;;;;;;;-0.90;100.00;102250.94;5052388;28;20037;-57
2023/04/05 06:37:54;;;;;;;23.85;20.70;;;;;;;-0.77;100.00;102247.09;5052065;28;20071;-57
2023/04/05 06:40:20;;;;;;;28.13;21.95;;;;;;;-0.68;100.00;102243.81;5052869;28;20451;-57
2023/04/05 06:42:45;;;;;;;27.17;21.67;;;;;;;-0.59;100.00;102242.94;5052621;28;20021;-57
2023/04/05 06:45:11;;;;;;;27.35;22.40;;;;;;;-0.52;100.00;102247.81;5051935;28;20021;-57
2023/04/05 06:47:38;;;;;;;24.88;20.60;;;;;;;-0.37;100.00;102239.16;5052445;28;20496;-57
2023/04/05 06:50:06;;;;;;;20.70;10.43;;;;;;;-0.35;100.00;102255.41;5052048;28;20104;-57
2023/04/05 06:52:31;;;;;;;28.10;20.50;;;;;;;-0.14;100.00;102245.56;5052503;28;20029;-57
2023/04/05 06:54:56;;;;;;;25.40;20.45;;;;;;;-0.02;100.00;102244.16;5052343;28;20029;-57
2023/04/05 06:57:22;;;;;;;27.50;21.63;;;;;;;0.07;100.00;102246.69;5051923;28;20033;-58
2023/04/05 06:59:47;;;;;;;25.63;21.95;;;;;;;0.21;100.00;102248.00;5054785;28;20104;-57
2023/04/05 07:02:12;;;;;;;28.77;22.58;;;;;;;0.27;100.00;102253.66;5055994;28;20045;-58
2023/04/05 07:04:38;;;;;;;27.92;21.67;;;;;;;0.39;100.00;102253.91;5056150;28;20044;-58
2023/04/05 07:07:05;;;;;;;29.23;22.30;;;;;;;0.45;100.00;102257.00;5056424;28;20488;-58
2023/04/05 07:09:34;;;;;;;25.25;21.05;;;;;;;0.60;100.00;102256.66;5056511;28;20028;-58
2023/04/05 07:12:01;;;;;;;27.25;21.27;;;;;;;0.71;100.00;102265.22;5055770;28;20021;-57
2023/04/05 07:14:29;;;;;;;24.15;21.23;;;;;;;0.79;100.00;102264.31;5056472;28;20021;-57
2023/04/05 07:16:54;;;;;;;;;;;;;;;0.86;100.00;102253.06;5056341;28;20119;-57
2023/04/05 07:19:19;;;;;;;27.17;21.65;;;;;;;1.01;100.00;102256.09;5056019;28;20479;-58
2023/04/05 07:21:45;;;;;;;24.92;20.10;;;;;;;1.24;100.00;102254.00;5056507;28;20025;-57
2023/04/05 07:24:10;;;;;;;24.83;20.67;;;;;;;1.33;100.00;102261.56;5055712;28;20024;-56
2023/04/05 07:26:36;;;;;;;25.77;19.25;;;;;;;1.66;100.00;102261.91;5055780;28;20031;-55
2023/04/05 07:29:03;;;;;;;26.58;18.45;;;;;;;1.89;97.83;102259.72;5055941;28;20021;-56
2023/04/05 07:31:28;;;;;;;25.80;19.15;;;;;;;1.93;97.28;102261.75;5055911;28;20025;-55
2023/04/05 07:33:54;;;;;;;23.33;19.27;;;;;;;1.94;98.51;102257.59;5055608;28;20031;-56
2023/04/05 07:36:19;;;;;;;23.15;19.05;;;;;;;2.03;98.20;102250.75;5056098;28;20025;-56
2023/04/05 07:38:44;;;;;;;26.40;20.38;;;;;;;2.18;98.34;102251.16;5055880;28;20056;-56
2023/04/05 07:41:10;;;;;;;22.38;18.30;;;;;;;2.36;97.15;102251.84;5055215;28;20379;-55
2023/04/05 07:43:35;;;;;;;22.77;19.15;;;;;;;2.56;94.52;102248.47;5055961;28;20059;-56
2023/04/05 07:46:02;;;;;;;23.42;19.73;;;;;;;2.56;96.44;102250.13;5055194;28;20036;-56
2023/04/05 07:48:28;;;;;;;22.35;18.67;;;;;;;2.76;94.85;102252.72;5055334;28;20448;-56
2023/04/05 07:50:54;;;;;;;24.17;19.20;;;;;;;2.78;93.38;102246.06;5055701;28;20047;-56
2023/04/05 07:53:19;;;;;;;20.42;17.15;;;;;;;3.15;89.66;102244.78;5055428;28;20045;-57
2023/04/05 07:55:45;;;;;;;19.50;17.45;;;;;;;3.16;91.91;102252.56;5055216;28;20037;-56
2023/04/05 07:58:10;;;;;;;22.02;16.67;;;;;;;3.30;92.35;102251.13;5055184;28;20051;-57
2023/04/05 08:00:36;;;;;;;21.10;16.95;;;;;;;3.38;89.58;102250.13;5054867;28;20028;-57
2023/04/05 08:03:03;;;;;;;20.02;15.85;;;;;;;3.49;90.44;102248.44;5055115;28;20143;-57
2023/04/05 08:05:28;;;;;;;19.95;15.60;;;;;;;3.80;86.76;102240.69;5055459;28;20055;-53
2023/04/05 08:07:56;;;;;;;18.88;14.95;;;;;;;3.82;87.05;102233.16;5054909;28;20496;-56
2023/04/05 08:10:22;;;;;;;20.48;15.65;;;;;;;4.01;87.02;102238.06;5054970;28;20021;-57
2023/04/05 08:12:47;;;;;;;21.25;15.38;;;;;;;4.09;85.68;102242.09;5055341;28;20380;-57
2023/04/05 08:15:12;;;;;;;19.83;14.57;;;;;;;4.25;82.27;102246.75;5054524;28;20865;-57
2023/04/05 08:17:37;;;;;;;16.88;13.98;;;;;;;4.33;80.80;102239.69;5055515;28;20021;-57
2023/04/05 08:20:03;;;;;;;19.42;15.45;;;;;;;4.51;82.24;102246.19;5054927;28;20381;-57
2023/04/05 08:22:29;;;;;;;22.05;15.35;;;;;;;4.60;82.24;102246.91;5054751;28;20029;-57
2023/04/05 08:24:54;;;;;;;17.80;14.25;;;;;;;4.67;79.57;102242.28;5055173;28;20021;-57
2023/04/05 08:27:19;;;;;;;21.23;14.77;;;;;;;4.73;78.53;102247.84;5054846;28;20036;-56
2023/04/05 08:29:45;;;;;;;19.70;13.82;;;;;;;4.89;77.15;102250.78;5054382;28;20029;-57
2023/04/05 08:32:10;;;;;;;19.75;13.93;;;;;;;5.03;76.56;102253.47;5054975;28;20032;-56
2023/04/05 08:34:35;;;;;;;20.30;14.43;;;;;;;5.16;76.51;102248.50;5054928;28;20017;-56
2023/04/05 08:37:01;;;;;;;18.05;13.93;;;;;;;5.28;74.88;102241.75;5054167;28;20118;-56
2023/04/05 08:39:26;;;;;;;19.80;13.88;;;;;;;5.45;71.81;102244.66;5055010;28;20032;-56
2023/04/05 08:42:03;;;;;;;18.67;14.13;;;;;;;5.55;73.96;102247.09;5054684;28;20048;-57
2023/04/05 08:44:30;;;;;;;19.13;14.18;;;;;;;5.76;72.95;102242.63;5054375;28;20016;-57
2023/04/05 08:46:57;;;;;;;17.67;13.05;;;;;;;5.96;71.41;102244.84;5054634;28;20020;-56
2023/04/05 08:49:22;;;;;;;17.08;13.73;;;;;;;6.01;68.06;102234.16;5054706;28;20029;-57
2023/04/05 08:51:48;;;;;;;20.25;13.40;;;;;;;6.13;66.84;102233.25;5054233;28;20473;-56
2023/04/05 08:54:13;;;;;;;18.75;13.75;;;;;;;6.32;70.02;102230.31;5054323;28;20540;-56
2023/04/05 08:56:41;;;;;;;20.08;14.35;;;;;;;6.48;70.86;102233.16;5054337;28;20086;-56
2023/04/05 08:59:08;;;;;;;17.50;13.43;;;;;;;6.84;69.15;102236.44;5054170;28;20051;-57
2023/04/05 09:01:40;;;;;;;18.35;13.02;;;;;;;6.77;68.53;102236.78;5054314;28;20021;-57
2023/04/05 09:04:11;;;;;;;18.83;12.75;;;;;;;6.99;64.73;102243.38;5053571;28;20447;-57
2023/04/05 09:06:36;;;;;;;16.50;12.38;;;;;;;7.22;64.27;102226.94;5054396;28;20021;-57
2023/04/05 09:09:06;;;;;;;20.35;12.20;;;;;;;7.25;61.85;102227.13;5053937;28;20108;-57
2023/04/05 09:11:33;;;;;;;16.23;11.57;;;;;;;7.38;61.18;102228.81;5053691;28;20353;-54
2023/04/05 09:13:58;;;;;;;16.83;11.68;;;;;;;7.72;61.32;102225.84;5054070;28;20021;-58
2023/04/05 09:16:25;;;;;;;15.65;11.52;;;;;;;7.69;61.06;102225.66;5054036;28;20028;-57
2023/04/05 09:18:51;;;;;;;17.48;12.00;;;;;;;7.88;59.72;102226.00;5053543;28;20021;-57
2023/04/05 09:21:16;;;;;;;15.52;12.30;;;;;;;8.11;60.11;102218.88;5053264;28;20025;-57
2023/04/05 09:23:51;;;;;;;15.73;10.68;;;;;;;8.16;55.08;102221.69;5053405;28;20428;-57
2023/04/05 09:26:22;;;;;;;14.48;10.98;;;;;;;8.47;54.90;102221.94;5053179;28;20029;-56
2023/04/05 09:28:48;;;;;;;16.88;11.45;;;;;;;8.75;53.65;102215.88;5054252;28;20025;-56
2023/04/05 09:31:35;;;;;;;15.70;10.60;;;;;;;8.98;54.79;102208.63;5053599;28;20021;-57
2023/04/05 09:34:02;;;;;;;15.02;10.45;;;;;;;9.17;49.56;102219.16;5053058;28;20065;-57
2023/04/05 09:36:28;;;;;;;13.13;10.40;;;;;;;9.44;49.78;102208.69;5053711;28;20044;-56
2023/04/05 09:39:03;;;;;;;16.70;11.02;;;;;;;9.76;49.92;102207.00;5053260;28;20155;-57
2023/04/05 09:41:28;;;;;;;17.80;10.75;;;;;;;10.09;49.40;102217.34;5053903;28;20063;-57
2023/04/05 09:43:54;;;;;;;12.07;9.77;;;;;;;10.55;44.54;102213.78;5053404;28;20037;-58
2023/04/05 09:46:34;;;;;;;14.98;10.32;;;;;;;10.44;45.49;102209.75;5053234;28;20020;-57
2023/04/05 09:49:00;;;;;;;14.98;10.07;;;;;;;10.03;41.98;102204.13;5053183;28;20029;-57
2023/04/05 09:51:33;;;;;;;12.93;9.90;;;;;;;10.15;43.20;102202.22;5053406;28;20032;-56
2023/04/05 09:54:00;;;;;;;12.73;10.00;;;;;;;11.04;40.89;102202.47;5052509;28;20476;-57
2023/04/05 09:56:27;;;;;;;11.43;9.63;;;;;;;12.03;41.03;102201.97;5053372;28;20086;-57
2023/04/05 09:58:57;;;;;;;15.07;10.27;;;;;;;12.46;40.55;102206.47;5053282;28;20108;-57
2023/04/05 10:01:26;;;;;;;13.95;9.93;;;;;;;12.56;37.28;102191.34;5052673;28;20107;-57
2023/04/05 10:03:51;;;;;;;12.45;9.65;;;;;;;13.34;35.97;102192.00;5053284;28;20357;-57
2023/04/05 10:06:17;;;;;;;12.52;9.48;;;;;;;12.72;34.65;102187.72;5052822;28;20032;-57
2023/04/05 10:08:47;;;;;;;13.15;9.73;;;;;;;13.79;37.93;102185.13;5052710;28;20059;-57
2023/04/05 10:11:15;;;;;;;13.68;9.30;;;;;;;14.35;32.36;102184.56;5052992;28;20017;-56
2023/04/05 10:13:41;;;;;;;11.02;8.88;;;;;;;14.26;32.88;102182.50;5052857;28;20107;-56
2023/04/05 10:16:09;;;;;;;15.05;8.23;;;;;;;14.89;31.30;102179.50;5052071;28;20116;-56
2023/04/05 10:18:45;;;;;;;12.55;8.50;;;;;;;15.41;31.63;102180.28;5052974;28;20494;-56
2023/04/05 10:21:13;;;;;;;12.63;8.88;;;;;;;15.25;29.61;102170.28;5052157;28;20071;-56
2023/04/05 10:23:44;;;;;;;11.98;8.65;;;;;;;14.80;29.61;102177.50;5053067;28;20071;-57
2023/04/05 10:26:23;;;;;;;12.52;9.13;;;;;;;15.48;31.10;102168.41;5052395;28;20020;-57
2023/04/05 10:28:54;;;;;;;12.18;8.68;;;;;;;15.94;29.53;102167.16;5052435;28;20033;-57
2023/04/05 10:31:50;;;;;;;14.00;8.30;;;;;;;16.87;30.68;102159.19;5053079;28;20024;-56
2023/04/05 10:34:27;;;;;;;12.73;8.02;;;;;;;16.75;29.71;102164.97;5052004;28;20029;-57
2023/04/05 10:36:58;;;;;;;9.27;7.63;;;;;;;16.85;26.90;102163.50;5052133;28;20131;-57
2023/04/05 10:39:39;;;;;;;11.35;8.40;;;;;;;17.05;28.86;102156.19;5052867;28;20021;-56
2023/04/05 10:42:33;;;;;;;9.77;7.68;;;;;;;17.17;27.05;102160.84;5052397;28;20029;-57
2023/04/05 10:45:03;;;;;;;10.80;7.68;;;;;;;16.54;25.60;102161.81;5052411;28;20025;-57
2023/04/05 10:47:30;;;;;;;10.23;7.93;;;;;;;15.83;26.44;102159.91;5052377;28;20103;-57
2023/04/05 10:50:02;;;;;;;10.32;7.50;;;;;;;15.37;26.83;102165.44;5051946;28;20029;-57
2023/04/05 10:52:28;;;;;;;11.50;8.00;;;;;;;15.00;27.18;102169.47;5052787;28;20120;-56
2023/04/05 10:54:56;;;;;;;10.55;8.25;;;;;;;15.32;27.54;102161.81;5052208;28;20021;-56
2023/04/05 10:57:22;;;;;;;10.90;7.65;;;;;;;14.44;27.87;102162.41;5052062;28;20104;-56
2023/04/05 10:59:48;;;;;;;10.00;8.05;;;;;;;13.77;27.66;102151.34;5052449;28;20029;-57
2023/04/05 11:02:15;;;;;;;11.30;7.47;;;;;;;13.33;28.77;102148.81;5051873;28;20442;-56
2023/04/05 11:04:40;;;;;;;9.70;7.38;;;;;;;13.45;29.06;102143.28;5052204;28;20021;-56
2023/04/05 11:07:16;;;;;;;10.10;7.45;;;;;;;13.08;30.89;102141.78;5052107;28;20082;-56
2023/04/05 11:10:01;;;;;;;11.43;7.60;;;;;;;13.08;31.29;102146.06;5052383;28;20465;-56